createdAt,value
2022-11-12T00:01:46.514Z,20.13
2022-11-12T00:05:08.304Z,17.48
2022-11-12T00:08:30.862Z,16.02
2022-11-12T00:11:52.083Z,19.83
2022-11-12T00:15:13.972Z,20.83
2022-11-12T00:18:35.442Z,17.60
2022-11-12T00:21:56.898Z,17.63
2022-11-12T00:25:19.641Z,15.93
2022-11-12T00:28:40.983Z,16.33
2022-11-12T00:32:02.329Z,15.18
2022-11-12T00:35:23.520Z,16.83
2022-11-12T00:38:44.759Z,18.60
2022-11-12T00:42:07.439Z,22.55
2022-11-12T00:45:28.648Z,15.75
2022-11-12T00:48:49.956Z,19.33
2022-11-12T00:52:11.411Z,16.52
2022-11-12T00:55:32.632Z,13.80
2022-11-12T00:58:55.435Z,15.88
2022-11-12T01:02:17.093Z,17.35
2022-11-12T01:05:38.369Z,13.75
2022-11-12T01:08:59.535Z,14.48
2022-11-12T01:12:20.686Z,15.32
2022-11-12T01:15:43.766Z,13.65
2022-11-12T01:19:06.927Z,13.43
2022-11-12T01:22:28.386Z,12.35
2022-11-12T01:25:49.726Z,14.43
2022-11-12T01:29:11.132Z,16.05
2022-11-12T01:32:37.861Z,11.68
2022-11-12T01:35:59.848Z,12.77
2022-11-12T01:39:21.406Z,16.65
2022-11-12T01:42:42.674Z,14.40
2022-11-12T01:46:07.081Z,13.07
2022-11-12T01:49:36.725Z,13.95
2022-11-12T01:53:03.077Z,11.15
2022-11-12T01:56:27.767Z,12.85
2022-11-12T01:59:51.381Z,11.02
2022-11-12T02:03:20.074Z,11.75
2022-11-12T02:06:44.298Z,12.20
2022-11-12T02:10:07.553Z,14.57
2022-11-12T02:13:46.916Z,15.65
2022-11-12T02:17:08.428Z,12.60
2022-11-12T02:20:34.615Z,13.35
2022-11-12T02:24:02.367Z,13.57
2022-11-12T02:27:24.990Z,12.68
2022-11-12T02:30:48.685Z,12.50
2022-11-12T02:34:10.224Z,13.52
2022-11-12T02:37:31.435Z,10.68
2022-11-12T02:40:54.374Z,11.48
2022-11-12T02:44:15.779Z,14.25
2022-11-12T02:47:37.032Z,10.80
2022-11-12T02:50:58.386Z,11.05
2022-11-12T02:54:19.697Z,12.35
2022-11-12T02:57:42.700Z,9.57
2022-11-12T03:01:04.076Z,11.43
2022-11-12T03:04:25.532Z,12.98
2022-11-12T03:07:47.430Z,9.77
2022-11-12T03:11:11.485Z,10.32
2022-11-12T03:14:34.481Z,11.15
2022-11-12T03:17:56.102Z,10.02
2022-11-12T03:21:17.334Z,11.05
2022-11-12T03:24:38.606Z,9.02
2022-11-12T03:28:00.815Z,9.48
2022-11-12T03:31:23.828Z,10.55
2022-11-12T03:34:45.200Z,9.27
2022-11-12T03:38:06.981Z,9.15
2022-11-12T03:41:28.285Z,9.40
2022-11-12T03:44:49.477Z,9.90
2022-11-12T03:48:12.244Z,9.63
2022-11-12T03:51:33.838Z,9.57
2022-11-12T03:54:55.146Z,7.95
2022-11-12T03:58:16.282Z,8.80
2022-11-12T04:01:38.515Z,10.00
2022-11-12T04:05:19.318Z,9.35
2022-11-12T04:08:40.749Z,9.35
2022-11-12T04:12:22.824Z,8.13
2022-11-12T04:15:44.449Z,8.60
2022-11-12T04:19:24.842Z,8.90
2022-11-12T04:22:47.710Z,8.82
2022-11-12T04:26:26.012Z,8.82
2022-11-12T04:30:05.505Z,8.15
2022-11-12T04:33:26.959Z,7.50
2022-11-12T04:36:48.113Z,6.22
2022-11-12T04:40:26.223Z,9.13
2022-11-12T04:44:05.134Z,8.07
2022-11-12T04:47:26.922Z,7.78
2022-11-12T04:50:51.395Z,7.65
2022-11-12T04:54:12.905Z,7.57
2022-11-12T04:57:35.330Z,9.60
2022-11-12T05:00:56.545Z,6.82
2022-11-12T05:04:18.280Z,6.82
2022-11-12T05:07:39.623Z,6.75
2022-11-12T05:11:00.899Z,7.47
2022-11-12T05:14:23.635Z,7.43
2022-11-12T05:17:45.910Z,8.65
2022-11-12T05:21:21.041Z,7.53
2022-11-12T05:24:44.330Z,6.47
2022-11-12T05:28:07.056Z,8.13
2022-11-12T05:31:30.192Z,5.90
2022-11-12T05:34:51.661Z,6.80
2022-11-12T05:38:12.912Z,5.60
2022-11-12T05:41:58.085Z,7.45
2022-11-12T05:45:15.677Z,7.50
2022-11-12T05:48:38.532Z,5.93
2022-11-12T05:51:59.956Z,7.22
2022-11-12T05:55:21.239Z,7.65
2022-11-12T05:58:42.406Z,7.63
2022-11-12T06:02:03.584Z,5.72
2022-11-12T06:05:26.715Z,6.35
2022-11-12T06:08:48.112Z,6.63
2022-11-12T06:12:09.360Z,6.40
2022-11-12T06:15:32.829Z,5.90
2022-11-12T06:18:57.099Z,7.47
2022-11-12T06:22:20.046Z,5.38
2022-11-12T06:25:41.435Z,6.32
2022-11-12T06:29:02.782Z,6.03
2022-11-12T06:32:24.672Z,6.60
2022-11-12T06:35:46.156Z,9.48
2022-11-12T06:39:08.816Z,8.93
2022-11-12T06:42:29.963Z,5.10
2022-11-12T06:45:51.079Z,5.68
2022-11-12T06:49:12.369Z,5.68
2022-11-12T06:52:33.669Z,6.85
2022-11-12T06:56:02.919Z,7.15
2022-11-12T06:59:24.456Z,6.53
2022-11-12T07:02:46.067Z,5.15
2022-11-12T07:06:09.742Z,7.43
2022-11-12T07:09:31.333Z,5.28
2022-11-12T07:12:56.581Z,6.18
2022-11-12T07:16:19.597Z,7.30
2022-11-12T07:19:41.826Z,6.45
2022-11-12T07:23:03.309Z,6.35
2022-11-12T07:26:27.524Z,6.25
2022-11-12T07:29:50.179Z,5.53
2022-11-12T07:33:11.641Z,6.20
2022-11-12T07:36:33.095Z,6.28
2022-11-12T07:39:54.470Z,5.60
2022-11-12T07:43:15.770Z,6.45
2022-11-12T07:46:38.660Z,4.47
2022-11-12T07:50:00.349Z,6.22
2022-11-12T07:53:21.506Z,6.72
2022-11-12T07:56:42.798Z,5.15
2022-11-12T08:00:04.916Z,6.72
2022-11-12T08:03:27.810Z,5.05
2022-11-12T08:06:49.327Z,4.72
2022-11-12T08:10:11.547Z,6.03
2022-11-12T08:13:32.900Z,5.10
2022-11-12T08:16:54.045Z,6.35
2022-11-12T08:20:16.814Z,7.80
2022-11-12T08:23:38.405Z,6.15
2022-11-12T08:26:59.794Z,5.45
2022-11-12T08:30:21.404Z,6.05
2022-11-12T08:33:43.175Z,5.63
2022-11-12T08:37:05.813Z,5.72
2022-11-12T08:40:27.505Z,7.43
2022-11-12T08:43:48.718Z,4.55
2022-11-12T08:47:10.106Z,5.18
2022-11-12T08:50:31.885Z,6.97
2022-11-12T08:53:54.835Z,5.60
2022-11-12T08:57:16.496Z,5.50
2022-11-12T09:00:40.267Z,5.47
2022-11-12T09:04:01.502Z,4.43
2022-11-12T09:07:47.972Z,4.78
2022-11-12T09:11:05.967Z,5.20
2022-11-12T09:14:27.297Z,4.45
2022-11-12T09:17:49.053Z,4.43
2022-11-12T09:21:13.118Z,4.88
2022-11-12T09:24:34.391Z,5.60
2022-11-12T09:27:57.034Z,5.35
2022-11-12T09:31:18.235Z,6.55
2022-11-12T09:34:39.610Z,5.75
2022-11-12T09:38:01.062Z,4.93
2022-11-12T09:41:27.996Z,4.50
2022-11-12T09:44:57.833Z,5.78
2022-11-12T09:48:23.249Z,4.32
2022-11-12T09:51:50.688Z,5.00
2022-11-12T09:55:19.982Z,5.43
2022-11-12T09:58:41.149Z,5.38
2022-11-12T10:02:19.260Z,5.97
2022-11-12T10:05:43.804Z,4.80
2022-11-12T10:09:10.615Z,4.78
2022-11-12T10:12:43.549Z,4.63
2022-11-12T10:16:51.098Z,4.00
2022-11-12T10:20:19.846Z,5.47
2022-11-12T10:23:44.717Z,4.18
2022-11-12T10:27:16.636Z,5.10
2022-11-12T10:30:38.425Z,6.45
2022-11-12T10:34:16.041Z,5.03
2022-11-12T10:37:43.860Z,7.82
2022-11-12T10:41:20.346Z,8.40
2022-11-12T10:44:43.241Z,9.20
2022-11-12T10:48:04.506Z,7.15
2022-11-12T10:51:28.586Z,10.40
2022-11-12T10:55:07.263Z,5.70
2022-11-12T10:58:28.883Z,10.35
2022-11-12T11:01:56.610Z,9.10
2022-11-12T11:05:31.956Z,9.68
2022-11-12T11:08:54.812Z,6.65
2022-11-12T11:12:26.954Z,4.75
2022-11-12T11:16:01.793Z,6.65
2022-11-12T11:19:23.722Z,6.53
2022-11-12T11:22:48.061Z,5.32
2022-11-12T11:26:23.601Z,6.97
2022-11-12T11:30:02.830Z,5.40
2022-11-12T11:33:35.250Z,6.15
2022-11-12T11:37:03.849Z,6.18
2022-11-12T11:40:30.062Z,6.75
2022-11-12T11:44:11.204Z,4.30
2022-11-12T11:48:00.510Z,8.60
2022-11-12T11:51:38.868Z,16.30
2022-11-12T11:55:15.726Z,10.27
2022-11-12T11:59:04.290Z,19.15
2022-11-12T12:02:45.168Z,9.95
2022-11-12T12:06:20.870Z,10.90
2022-11-12T12:09:47.733Z,6.03
2022-11-12T12:13:17.746Z,17.58
2022-11-12T12:16:56.109Z,14.95
2022-11-12T12:20:22.876Z,16.08
2022-11-12T12:23:49.726Z,11.57
2022-11-12T12:27:15.244Z,10.98
2022-11-12T12:30:40.948Z,11.30
2022-11-12T12:34:06.848Z,7.80
2022-11-12T12:37:38.602Z,9.18
2022-11-12T12:41:06.653Z,5.28
2022-11-12T12:44:45.927Z,8.90
2022-11-12T12:48:13.789Z,8.05
2022-11-12T12:51:35.687Z,5.10
2022-11-12T12:54:59.667Z,4.45
2022-11-12T12:58:28.452Z,6.15
2022-11-12T13:01:58.192Z,6.18
2022-11-12T13:05:31.289Z,8.98
2022-11-12T13:08:57.321Z,9.07
2022-11-12T13:12:25.836Z,6.93
2022-11-12T13:15:48.659Z,9.48
2022-11-12T13:19:10.119Z,7.82
2022-11-12T13:22:49.246Z,6.95
2022-11-12T13:26:48.471Z,6.45
2022-11-12T13:30:49.844Z,8.02
2022-11-12T13:34:22.585Z,6.40
2022-11-12T13:37:45.587Z,7.15
2022-11-12T13:41:15.984Z,7.68
2022-11-12T13:44:37.521Z,6.93
2022-11-12T13:47:59.197Z,9.13
2022-11-12T13:51:29.183Z,9.38
2022-11-12T13:55:02.173Z,7.22
2022-11-12T13:58:29.479Z,10.27
2022-11-12T14:01:51.791Z,7.25
2022-11-12T14:05:17.251Z,7.82
2022-11-12T14:08:58.920Z,7.68
2022-11-12T14:12:40.333Z,7.68
2022-11-12T14:16:30.813Z,7.72
2022-11-12T14:20:26.037Z,7.93
2022-11-12T14:23:50.664Z,9.43
2022-11-12T14:27:34.120Z,8.40
2022-11-12T14:30:55.479Z,8.55
2022-11-12T14:34:28.203Z,6.45
2022-11-12T14:37:52.952Z,10.05
2022-11-12T14:41:21.566Z,7.60
2022-11-12T14:44:43.007Z,10.15
2022-11-12T14:48:09.790Z,7.68
2022-11-12T14:51:33.497Z,7.93
2022-11-12T14:54:58.853Z,7.70
2022-11-12T14:58:23.870Z,8.18
2022-11-12T15:05:58.858Z,7.00
2022-11-12T15:09:32.336Z,10.13
2022-11-12T15:12:53.544Z,7.13
2022-11-12T15:16:22.484Z,8.00
2022-11-12T15:19:44.128Z,7.18
2022-11-12T15:23:06.083Z,7.57
2022-11-12T15:26:34.455Z,8.80
2022-11-12T15:30:16.080Z,7.07
2022-11-12T15:33:38.790Z,8.15
2022-11-12T15:37:03.225Z,9.88
2022-11-12T15:40:24.596Z,9.05
2022-11-12T15:43:46.048Z,8.25
2022-11-12T15:47:12.254Z,8.73
2022-11-12T15:50:34.983Z,8.57
2022-11-12T15:53:56.294Z,8.25
2022-11-12T15:57:19.718Z,7.30
2022-11-12T16:00:40.924Z,8.63
2022-11-12T16:04:02.230Z,8.73
2022-11-12T16:07:24.808Z,10.48
2022-11-12T16:10:47.378Z,9.18
2022-11-12T16:14:13.898Z,9.02
2022-11-12T16:17:35.284Z,11.50
2022-11-12T16:20:56.577Z,10.07
2022-11-12T16:24:19.110Z,10.57
2022-11-12T16:27:41.688Z,10.40
2022-11-12T16:31:02.930Z,12.18
2022-11-12T16:34:24.041Z,10.05
2022-11-12T16:37:46.565Z,7.60
2022-11-12T16:41:12.755Z,11.93
2022-11-12T16:44:34.189Z,12.40
2022-11-12T16:47:57.071Z,9.57
2022-11-12T16:51:20.217Z,10.48
2022-11-12T16:54:41.649Z,11.13
2022-11-12T16:58:04.711Z,10.18
2022-11-12T17:01:28.299Z,11.32
2022-11-12T17:04:50.003Z,11.15
2022-11-12T17:08:11.626Z,12.02
2022-11-12T17:11:33.089Z,11.65
2022-11-12T17:14:56.051Z,11.57
2022-11-12T17:18:17.293Z,12.48
2022-11-12T17:21:38.486Z,13.32
2022-11-12T17:24:59.669Z,13.13
2022-11-12T17:28:20.811Z,14.75
2022-11-12T17:31:43.311Z,12.73
2022-11-12T17:35:04.822Z,14.05
2022-11-12T17:38:26.383Z,13.57
2022-11-12T17:41:47.534Z,14.43
2022-11-12T17:45:09.789Z,15.10
2022-11-12T17:48:33.863Z,14.70
2022-11-12T17:51:55.177Z,12.88
2022-11-12T17:55:16.604Z,13.27
2022-11-12T17:58:38.540Z,15.40
2022-11-12T18:02:00.307Z,14.80
2022-11-12T18:05:23.002Z,13.73
2022-11-12T18:08:44.926Z,14.07
2022-11-12T18:12:06.766Z,14.60
2022-11-12T18:15:28.770Z,19.42
2022-11-12T18:18:50.883Z,12.65
2022-11-12T18:22:15.816Z,15.18
2022-11-12T18:25:38.270Z,12.05
2022-11-12T18:29:00.324Z,17.02
2022-11-12T18:32:21.692Z,15.25
2022-11-12T18:35:42.922Z,15.77
2022-11-12T18:39:06.275Z,20.30
2022-11-12T18:42:28.628Z,16.90
2022-11-12T18:45:55.246Z,22.33
2022-11-12T18:49:16.597Z,14.93
2022-11-12T18:52:38.244Z,14.23
2022-11-12T18:56:03.872Z,14.80
2022-11-12T18:59:30.547Z,15.48
2022-11-12T19:02:51.706Z,18.65
2022-11-12T19:06:14.222Z,16.67
2022-11-12T19:09:35.998Z,18.38
2022-11-12T19:13:00.835Z,17.55
2022-11-12T19:16:24.614Z,15.90
2022-11-12T19:19:46.017Z,16.33
2022-11-12T19:23:07.315Z,17.98
2022-11-12T19:26:29.254Z,16.73
2022-11-12T19:29:51.948Z,16.40
2022-11-12T19:33:16.250Z,17.00
2022-11-12T19:36:37.738Z,15.38
2022-11-12T19:39:59.259Z,13.18
2022-11-12T19:43:22.202Z,12.65
2022-11-12T19:46:45.132Z,12.68
2022-11-12T19:50:07.388Z,15.95
2022-11-12T19:53:31.687Z,14.80
2022-11-12T19:56:53.295Z,14.25
2022-11-12T20:00:15.891Z,14.45
2022-11-12T20:03:39.094Z,15.25
2022-11-12T20:07:00.669Z,14.80
2022-11-12T20:10:22.571Z,16.17
2022-11-12T20:13:44.155Z,15.50
2022-11-12T20:17:05.343Z,17.23
2022-11-12T20:20:28.159Z,13.70
2022-11-12T20:23:49.372Z,13.38
2022-11-12T20:27:10.816Z,14.60
2022-11-12T20:30:32.080Z,17.25
2022-11-12T20:33:53.446Z,14.52
2022-11-12T20:37:16.095Z,14.38
2022-11-12T20:40:37.802Z,17.00
2022-11-12T20:44:00.468Z,13.45
2022-11-12T20:47:22.006Z,16.15
2022-11-12T20:51:02.324Z,17.73
2022-11-12T20:54:26.031Z,17.00
2022-11-12T20:57:47.641Z,12.35
2022-11-12T21:01:11.275Z,11.57
2022-11-12T21:04:32.836Z,13.95
2022-11-12T21:07:55.708Z,13.80
2022-11-12T21:11:20.358Z,15.25
2022-11-12T21:14:44.854Z,13.80
2022-11-12T21:18:08.985Z,14.18
2022-11-12T21:21:31.569Z,12.68
2022-11-12T21:24:53.239Z,15.85
2022-11-12T21:28:15.813Z,16.00
2022-11-12T21:31:37.478Z,12.85
2022-11-12T21:34:58.818Z,11.57
2022-11-12T21:38:20.093Z,12.88
2022-11-12T21:41:41.135Z,13.23
2022-11-12T21:45:04.113Z,14.38
2022-11-12T21:48:25.781Z,12.48
2022-11-12T21:51:47.836Z,14.30
2022-11-12T21:55:09.591Z,14.40
2022-11-12T21:58:31.269Z,11.80
2022-11-12T22:01:54.296Z,14.18
2022-11-12T22:05:16.369Z,13.50
2022-11-12T22:08:38.283Z,15.68
2022-11-12T22:11:59.737Z,19.65
2022-11-12T22:15:24.393Z,21.75
2022-11-12T22:18:49.087Z,20.13
2022-11-12T22:22:10.640Z,21.40
2022-11-12T22:25:32.050Z,23.95
2022-11-12T22:28:53.950Z,30.17
2022-11-12T22:32:15.266Z,23.95
2022-11-12T22:35:37.912Z,23.05
2022-11-12T22:38:59.748Z,21.98
2022-11-12T22:42:21.485Z,23.27
2022-11-12T22:45:43.049Z,20.90
2022-11-12T22:49:05.693Z,21.63
2022-11-12T22:52:28.840Z,24.83
2022-11-12T22:55:51.627Z,19.70
2022-11-12T22:59:13.960Z,23.10
2022-11-12T23:02:36.401Z,20.48
2022-11-12T23:05:58.851Z,19.20
2022-11-12T23:09:21.926Z,19.33
2022-11-12T23:12:43.525Z,24.00
2022-11-12T23:16:07.472Z,24.65
2022-11-12T23:19:29.349Z,23.13
2022-11-12T23:22:51.757Z,22.40
2022-11-12T23:26:17.147Z,19.98
2022-11-12T23:29:38.542Z,23.05
2022-11-12T23:32:59.971Z,23.48
2022-11-12T23:36:22.588Z,22.58
2022-11-12T23:39:43.884Z,22.33
2022-11-12T23:43:06.518Z,25.25
2022-11-12T23:46:27.964Z,23.92
2022-11-12T23:49:49.108Z,20.13
2022-11-12T23:53:10.629Z,19.77
2022-11-12T23:56:31.741Z,23.88
2022-11-12T23:59:54.497Z,23.85
